createdAt,value
2018-03-16T10:58:39.204Z,5184
2018-03-16T10:59:38.114Z,4748
2018-03-16T11:00:38.351Z,4468
2018-03-16T11:01:38.587Z,4328
2018-03-16T11:02:38.688Z,4184
2018-03-16T11:03:38.582Z,4100
2018-03-16T11:04:38.578Z,4076
2018-03-16T11:05:38.310Z,4080
2018-03-16T11:06:38.076Z,4028
2018-03-16T11:07:38.562Z,3956
2018-03-16T11:08:39.142Z,3872
2018-03-16T11:09:38.572Z,3796
2018-03-16T11:10:38.341Z,3788
2018-03-16T11:11:38.046Z,3860
2018-03-16T11:12:38.551Z,4012
2018-03-16T11:13:38.300Z,4184
2018-03-16T11:14:37.780Z,4392
2018-03-16T11:15:38.293Z,4752
2018-03-16T11:16:38.548Z,5284
2018-03-16T11:17:38.360Z,5904
2018-03-16T11:18:38.551Z,6544
2018-03-16T11:19:38.550Z,7552
2018-03-16T11:20:38.548Z,7740
2018-03-16T11:21:38.280Z,8240
2018-03-16T11:22:38.557Z,8612
2018-03-16T11:23:38.705Z,8980
2018-03-16T11:24:38.548Z,8740
2018-03-16T11:25:38.534Z,8388
2018-03-16T11:26:38.039Z,7872
2018-03-16T11:27:38.525Z,7452
2018-03-16T11:28:40.327Z,7200
2018-03-16T11:29:38.278Z,6960
2018-03-16T11:30:38.528Z,6548
2018-03-16T11:31:38.267Z,6420
2018-03-16T11:32:38.549Z,6536
2018-03-16T11:33:38.271Z,6840
2018-03-16T11:34:38.534Z,6968
2018-03-16T11:35:38.531Z,7520
2018-03-16T11:36:38.260Z,8268
2018-03-16T11:37:38.340Z,8656
2018-03-16T11:38:38.557Z,8644
2018-03-16T11:39:38.253Z,8380
2018-03-16T11:40:38.260Z,8352
2018-03-16T11:41:38.531Z,8560
2018-03-16T11:42:38.533Z,8640
2018-03-16T11:43:38.261Z,8632
2018-03-16T11:44:38.259Z,8672
2018-03-16T11:45:38.266Z,8616
2018-03-16T11:46:38.276Z,8656
2018-03-16T11:47:38.565Z,8856
2018-03-16T11:48:38.290Z,9308
2018-03-16T11:49:38.519Z,9276
2018-03-16T11:50:38.280Z,9480
2018-03-16T11:51:38.006Z,9712
2018-03-16T11:52:38.507Z,10608
2018-03-16T11:53:38.527Z,10572
2018-03-16T11:54:38.543Z,10920
2018-03-16T11:55:38.514Z,10492
2018-03-16T11:56:38.506Z,10140
2018-03-16T11:57:38.312Z,9624
2018-03-16T11:58:38.511Z,8892
2018-03-16T11:59:39.316Z,8528
2018-03-16T12:00:38.511Z,8336
2018-03-16T12:01:38.574Z,8420
2018-03-16T12:02:38.253Z,8140
2018-03-16T12:03:38.263Z,7352
2018-03-16T12:04:38.535Z,6448
2018-03-16T12:05:38.254Z,5696
2018-03-16T12:06:38.511Z,5052
2018-03-16T12:07:38.286Z,4600
2018-03-16T12:08:38.524Z,4320
2018-03-16T12:09:38.247Z,4296
2018-03-16T12:10:37.981Z,4580
2018-03-16T12:11:37.982Z,5312
2018-03-16T12:12:38.524Z,6416
2018-03-16T12:13:38.255Z,7712
2018-03-16T12:14:38.313Z,8676
2018-03-16T12:15:37.990Z,8984
2018-03-16T12:16:38.237Z,9324
2018-03-16T12:17:38.528Z,10136
2018-03-16T12:18:37.974Z,10152
2018-03-16T12:19:38.236Z,9760
2018-03-16T12:20:38.236Z,9080
2018-03-16T12:21:38.572Z,9336
2018-03-16T12:22:38.520Z,8996
2018-03-16T12:23:38.512Z,8352
2018-03-16T12:24:38.500Z,8440
2018-03-16T12:25:38.238Z,8896
2018-03-16T12:26:38.531Z,9364
2018-03-16T12:27:38.243Z,9156
2018-03-16T12:28:57.655Z,9260
2018-03-16T12:29:38.697Z,9352
2018-03-16T12:30:38.526Z,9416
2018-03-16T12:31:38.529Z,9216
2018-03-16T12:32:38.515Z,9116
2018-03-16T12:33:38.508Z,9900
2018-03-16T12:34:38.533Z,10108
2018-03-16T12:35:38.562Z,9740
2018-03-16T12:36:38.241Z,9512
2018-03-16T12:37:38.255Z,9124
2018-03-16T12:38:38.383Z,8668
2018-03-16T12:39:37.968Z,8428
2018-03-16T12:40:38.511Z,7744
2018-03-16T12:41:38.517Z,7784
2018-03-16T12:42:38.229Z,8176
2018-03-16T12:43:37.991Z,8144
2018-03-16T12:44:38.288Z,7728
2018-03-16T12:45:37.965Z,7512
2018-03-16T12:46:38.517Z,7548
2018-03-16T12:47:38.216Z,7520
2018-03-16T12:48:38.228Z,8080
2018-03-16T12:49:38.481Z,9268
2018-03-16T12:50:38.498Z,9180
2018-03-16T12:51:47.211Z,8668
2018-03-16T12:52:38.501Z,9300
2018-03-16T12:53:38.378Z,9260
2018-03-16T12:54:38.506Z,9460
2018-03-16T12:55:37.983Z,9988
2018-03-16T12:56:38.502Z,10488
2018-03-16T12:57:38.259Z,9812
2018-03-16T12:58:38.506Z,10364
2018-03-16T12:59:40.402Z,11052
2018-03-16T13:00:38.509Z,11168
2018-03-16T13:01:37.971Z,10172
2018-03-16T13:02:38.504Z,11292
2018-03-16T13:03:38.242Z,11064
2018-03-16T13:04:38.489Z,10680
2018-03-16T13:05:38.225Z,9700
2018-03-16T13:06:38.235Z,9536
2018-03-16T13:07:38.505Z,8080
2018-03-16T13:08:38.241Z,7552
2018-03-16T13:09:38.509Z,8068
2018-03-16T13:10:38.522Z,7724
2018-03-16T13:11:37.980Z,7832
2018-03-16T13:12:38.490Z,7648
2018-03-16T13:13:38.520Z,7436
2018-03-16T13:14:38.483Z,7392
2018-03-16T13:15:38.248Z,7524
2018-03-16T13:16:38.246Z,7468
2018-03-16T13:17:38.503Z,6908
2018-03-16T13:18:38.228Z,6504
2018-03-16T13:19:38.257Z,6536
2018-03-16T13:20:38.519Z,6644
2018-03-16T13:21:38.266Z,6620
2018-03-16T13:22:38.224Z,6584
2018-03-16T13:23:38.225Z,6676
2018-03-16T13:24:38.270Z,6924
2018-03-16T13:25:38.516Z,7288
2018-03-16T13:26:37.713Z,7688
2018-03-16T13:27:37.969Z,8104
2018-03-16T13:28:38.540Z,8288
2018-03-16T13:29:38.489Z,8292
2018-03-16T13:30:38.233Z,8284
2018-03-16T13:31:38.238Z,8248
2018-03-16T13:32:38.497Z,8404
2018-03-16T13:33:38.494Z,9132
2018-03-16T13:34:38.498Z,9360
2018-03-16T13:35:38.481Z,9544
2018-03-16T13:36:38.511Z,8948
2018-03-16T13:37:38.243Z,8336
2018-03-16T13:38:38.495Z,7920
2018-03-16T13:39:38.479Z,7740
2018-03-16T13:40:38.246Z,7752
2018-03-16T13:41:38.238Z,8928
2018-03-16T13:42:38.232Z,8972
2018-03-16T13:43:38.502Z,8520
2018-03-16T13:44:38.225Z,9004
2018-03-16T13:45:37.965Z,8936
2018-03-16T13:46:38.222Z,8664
2018-03-16T13:47:38.240Z,7140
2018-03-16T13:48:38.220Z,7032
2018-03-16T13:49:38.224Z,7240
2018-03-16T13:50:37.968Z,7572
2018-03-16T13:51:38.306Z,7664
2018-03-16T13:52:38.505Z,7508
2018-03-16T13:53:38.239Z,7348
2018-03-16T13:54:37.703Z,7144
2018-03-16T13:55:37.968Z,6996
2018-03-16T13:56:37.966Z,6928
2018-03-16T13:57:38.767Z,7124
2018-03-16T13:58:38.224Z,7184
2018-03-16T13:59:38.377Z,7296
2018-03-16T14:00:46.317Z,7908
2018-03-16T14:01:38.588Z,8016
2018-03-16T14:02:38.306Z,7428
2018-03-16T14:03:38.312Z,7244
2018-03-16T14:04:38.305Z,6944
2018-03-16T14:05:39.706Z,6628
2018-03-16T14:06:38.294Z,6764
2018-03-16T14:07:38.460Z,6736
2018-03-16T14:08:39.082Z,5796
2018-03-16T14:09:39.656Z,5948
2018-03-16T14:10:38.589Z,5732
2018-03-16T14:11:38.609Z,6060
2018-03-16T14:12:38.662Z,6428
2018-03-16T14:13:38.313Z,6684
2018-03-16T14:14:38.510Z,6660
2018-03-16T14:15:38.500Z,6496
2018-03-16T14:16:38.513Z,6212
2018-03-16T14:17:38.508Z,6076
2018-03-16T14:18:38.236Z,6052
2018-03-16T14:19:38.228Z,6072
2018-03-16T14:20:38.506Z,6728
2018-03-16T14:21:38.514Z,6232
2018-03-16T14:22:38.244Z,5968
2018-03-16T14:23:38.240Z,5568
2018-03-16T14:24:38.504Z,5756
2018-03-16T14:25:38.223Z,6400
2018-03-16T14:26:38.508Z,6372
2018-03-16T14:27:38.241Z,5384
2018-03-16T14:28:39.131Z,5196
2018-03-16T14:29:38.291Z,5072
2018-03-16T14:30:38.515Z,5408
2018-03-16T14:31:39.555Z,5664
2018-03-16T14:32:38.306Z,6852
2018-03-16T14:33:38.517Z,7188
2018-03-16T14:34:38.220Z,7260
2018-03-16T14:35:38.224Z,6260
2018-03-16T14:36:38.502Z,6896
2018-03-16T14:37:38.232Z,6216
2018-03-16T14:38:38.502Z,5176
2018-03-16T14:39:38.048Z,5168
2018-03-16T14:40:38.304Z,5484
2018-03-16T14:41:37.964Z,4580
2018-03-16T14:42:38.368Z,4624
2018-03-16T14:43:38.246Z,4696
2018-03-16T14:44:38.297Z,5288
2018-03-16T14:45:38.254Z,4692
2018-03-16T14:46:38.484Z,4712
2018-03-16T14:47:38.245Z,4752
2018-03-16T14:48:38.235Z,5544
2018-03-16T14:49:37.989Z,4572
2018-03-16T14:50:38.484Z,5312
2018-03-16T14:51:38.523Z,4280
2018-03-16T14:52:38.241Z,4032
2018-03-16T14:53:38.513Z,4000
2018-03-16T14:54:38.287Z,4120
2018-03-16T14:55:38.049Z,4120
2018-03-16T14:56:38.491Z,4680
2018-03-16T14:57:38.506Z,4892
2018-03-16T14:58:38.492Z,4924
2018-03-16T14:59:37.963Z,4024
2018-03-16T15:00:38.225Z,4352
2018-03-16T15:01:40.531Z,4044
2018-03-16T15:02:38.224Z,3788
2018-03-16T15:03:38.503Z,3824
2018-03-16T15:04:38.221Z,3752
2018-03-16T15:05:38.469Z,3656
2018-03-16T15:06:38.241Z,3604
2018-03-16T15:07:38.466Z,3688
2018-03-16T15:08:38.204Z,3720
2018-03-16T15:09:38.474Z,3796
2018-03-16T15:10:38.215Z,3876
2018-03-16T15:11:38.473Z,4040
2018-03-16T15:12:38.471Z,4152
2018-03-16T15:13:38.478Z,4128
2018-03-16T15:14:38.224Z,4096
2018-03-16T15:15:38.467Z,4076
2018-03-16T15:16:37.987Z,3992
2018-03-16T15:17:38.216Z,4028
2018-03-16T15:18:38.481Z,4104
2018-03-16T15:19:38.454Z,4028
2018-03-16T15:20:38.210Z,3952
2018-03-16T15:21:38.380Z,3908
2018-03-16T15:22:38.196Z,3908
2018-03-16T15:23:38.493Z,3928
2018-03-16T15:24:37.886Z,3964
2018-03-16T15:25:37.909Z,3700
2018-03-16T15:26:38.428Z,3532
2018-03-16T15:27:38.410Z,3432
2018-03-16T15:28:37.866Z,3440
2018-03-16T15:29:38.390Z,3372
2018-03-16T15:30:37.866Z,3564
2018-03-16T15:31:39.443Z,3196
2018-03-16T15:32:38.381Z,3136
2018-03-16T15:33:38.426Z,3104
2018-03-16T15:34:38.392Z,3112
2018-03-16T15:35:38.132Z,3124
2018-03-16T15:36:37.850Z,3164
2018-03-16T15:37:38.383Z,3248
2018-03-16T15:38:38.409Z,3740
2018-03-16T15:39:38.365Z,4064
2018-03-16T15:40:38.378Z,4136
2018-03-16T15:41:38.106Z,4152
2018-03-16T15:42:37.849Z,4092
2018-03-16T15:43:38.128Z,4048
2018-03-16T15:44:38.367Z,4008
2018-03-16T15:45:38.103Z,3940
2018-03-16T15:46:38.111Z,3916
2018-03-16T15:47:38.365Z,3868
2018-03-16T15:48:37.835Z,3916
2018-03-16T15:49:38.095Z,3824
2018-03-16T15:50:38.090Z,3468
2018-03-16T15:51:38.122Z,3756
2018-03-16T15:52:38.113Z,3712
2018-03-16T15:53:38.369Z,3636
2018-03-16T15:54:38.359Z,3572
2018-03-16T15:55:38.089Z,3528
2018-03-16T15:56:37.825Z,3492
2018-03-16T15:57:37.844Z,3444
2018-03-16T15:58:37.839Z,3352
2018-03-16T15:59:38.339Z,3076
2018-03-16T16:00:37.820Z,2868
2018-03-16T16:01:38.093Z,2856
2018-03-16T16:02:37.861Z,2880
2018-03-16T16:03:38.092Z,3164
2018-03-16T16:04:38.185Z,2892
2018-03-16T16:05:38.347Z,2856
2018-03-16T16:06:38.085Z,2800
2018-03-16T16:07:38.097Z,2744
2018-03-16T16:08:38.494Z,2844
2018-03-16T16:09:38.093Z,2820
2018-03-16T16:10:38.392Z,2556
2018-03-16T16:11:38.316Z,2512
2018-03-16T16:12:38.320Z,2476
2018-03-16T16:13:38.343Z,2452
2018-03-16T16:14:37.819Z,2408
2018-03-16T16:15:38.348Z,2376
2018-03-16T16:16:38.077Z,2344
2018-03-16T16:17:38.381Z,2308
2018-03-16T16:18:38.060Z,2272
2018-03-16T16:19:38.085Z,2244
2018-03-16T16:20:38.331Z,2212
2018-03-16T16:21:38.317Z,2208
2018-03-16T16:22:38.336Z,2168
2018-03-16T16:23:38.048Z,2272
2018-03-16T16:24:38.304Z,2300
2018-03-16T16:25:38.309Z,2276
2018-03-16T16:26:38.335Z,2244
2018-03-16T16:27:38.294Z,2220
2018-03-16T16:28:38.035Z,2220
2018-03-16T16:29:38.288Z,2252
2018-03-16T16:30:38.451Z,2224
2018-03-16T16:31:38.302Z,2200
2018-03-16T16:32:40.680Z,2176
2018-03-16T16:33:38.324Z,2160
2018-03-16T16:34:38.400Z,2152
2018-03-16T16:35:38.284Z,2176
2018-03-16T16:36:38.293Z,2128
2018-03-16T16:37:38.031Z,2060
2018-03-16T16:38:38.125Z,1992
2018-03-16T16:39:38.265Z,1912
2018-03-16T16:40:38.106Z,1840
2018-03-16T16:41:38.274Z,1772
2018-03-16T16:42:37.761Z,1724
2018-03-16T16:43:37.810Z,1672
2018-03-16T16:44:38.051Z,1624
2018-03-16T16:45:37.759Z,1576
2018-03-16T16:46:38.291Z,1528
2018-03-16T16:47:38.421Z,1484
2018-03-16T16:48:38.244Z,1444
2018-03-16T16:49:37.730Z,1400
2018-03-16T16:50:38.243Z,1356
2018-03-16T16:51:38.240Z,1312
2018-03-16T16:52:38.251Z,1268
2018-03-16T16:53:38.231Z,1232
2018-03-16T16:54:38.241Z,1200
2018-03-16T16:55:37.977Z,1168
2018-03-16T16:56:38.024Z,1148
2018-03-16T16:57:38.280Z,1132
2018-03-16T16:58:37.984Z,1116
2018-03-16T16:59:37.711Z,1088
2018-03-16T17:00:37.964Z,1052
2018-03-16T17:01:38.022Z,1020
2018-03-16T17:02:42.672Z,984
2018-03-16T17:03:38.219Z,948
2018-03-16T17:04:38.219Z,908
2018-03-16T17:05:38.246Z,864
2018-03-16T17:06:38.220Z,832
2018-03-16T17:07:38.198Z,796
2018-03-16T17:08:37.944Z,748
2018-03-16T17:09:37.705Z,712
2018-03-16T17:10:37.942Z,688
2018-03-16T17:11:37.944Z,660
2018-03-16T17:12:38.194Z,628
2018-03-16T17:13:38.196Z,592
2018-03-16T17:14:37.927Z,556
2018-03-16T17:15:38.181Z,524
2018-03-16T17:16:37.923Z,488
2018-03-16T17:17:38.185Z,448
2018-03-16T17:18:37.944Z,408
2018-03-16T17:19:38.183Z,368
2018-03-16T17:20:38.172Z,336
2018-03-16T17:21:38.169Z,308
2018-03-16T17:22:38.180Z,284
2018-03-16T17:23:38.159Z,256
2018-03-16T17:24:38.201Z,236
2018-03-16T17:25:38.156Z,212
2018-03-16T17:26:38.148Z,192
2018-03-16T17:27:37.963Z,176
2018-03-16T17:28:37.898Z,160
2018-03-16T17:29:37.378Z,144
2018-03-16T17:30:38.204Z,128
2018-03-16T17:31:37.945Z,116
2018-03-16T17:32:37.669Z,104
2018-03-16T17:33:40.050Z,88
2018-03-16T17:34:38.136Z,80
2018-03-16T17:35:38.120Z,72
2018-03-16T17:36:38.134Z,60
2018-03-16T17:37:37.863Z,56
2018-03-16T17:38:37.855Z,44
2018-03-16T17:39:38.100Z,40
2018-03-16T17:40:37.846Z,36
2018-03-16T17:41:37.860Z,28
2018-03-16T17:42:37.876Z,24
2018-03-16T17:43:38.099Z,20
2018-03-16T17:44:38.096Z,16
2018-03-16T17:45:37.841Z,16
2018-03-16T17:46:37.850Z,12
2018-03-16T17:47:38.082Z,12
2018-03-16T17:48:38.883Z,8
2018-03-16T17:49:38.074Z,8
2018-03-16T17:50:37.833Z,8
2018-03-16T17:51:37.853Z,8
2018-03-16T17:52:38.066Z,4
2018-03-16T17:53:37.797Z,4
2018-03-16T17:54:38.069Z,4
2018-03-16T17:55:38.087Z,0
2018-03-16T17:56:37.633Z,4
2018-03-16T17:57:37.799Z,4
2018-03-16T17:58:38.083Z,4
2018-03-16T17:59:38.113Z,0
2018-03-16T18:00:38.174Z,0
2018-03-16T18:01:38.026Z,0
2018-03-16T18:02:37.846Z,0
2018-03-16T18:03:39.208Z,0
2018-03-16T18:04:38.101Z,0
2018-03-16T18:05:38.019Z,0
2018-03-16T18:06:37.501Z,0
2018-03-16T18:07:37.760Z,0
2018-03-16T18:08:37.994Z,0
2018-03-16T18:09:38.093Z,0
2018-03-16T18:10:38.052Z,0
2018-03-16T18:11:38.138Z,0
2018-03-16T18:12:37.734Z,0
2018-03-16T18:13:37.740Z,0
2018-03-16T18:14:37.784Z,0
2018-03-16T18:15:37.721Z,0
2018-03-16T18:16:37.754Z,0
2018-03-16T18:17:37.705Z,0
2018-03-16T18:18:37.761Z,0
2018-03-16T18:19:37.702Z,0
2018-03-16T18:20:37.630Z,0
2018-03-16T18:21:37.957Z,0
2018-03-16T18:22:38.174Z,0
2018-03-16T18:23:38.224Z,0
2018-03-16T18:24:37.453Z,0
2018-03-16T18:25:38.102Z,0
2018-03-16T18:26:37.492Z,0
2018-03-16T18:27:37.414Z,0
2018-03-16T18:28:37.784Z,0
2018-03-16T18:29:37.683Z,0
2018-03-16T18:30:37.927Z,0
2018-03-16T18:31:37.850Z,0
2018-03-16T18:32:37.950Z,0
2018-03-16T18:33:37.411Z,0
2018-03-16T18:34:37.686Z,0
2018-03-16T18:35:37.931Z,0
2018-03-16T18:36:37.916Z,0
2018-03-16T18:37:37.660Z,0
2018-03-16T18:38:37.642Z,0
2018-03-16T18:39:37.372Z,0
2018-03-16T18:40:37.871Z,0
2018-03-16T18:41:37.628Z,0
2018-03-16T18:42:37.872Z,0
2018-03-16T18:43:37.620Z,0
2018-03-16T18:44:37.607Z,0
2018-03-16T18:45:37.845Z,0
2018-03-16T18:46:37.682Z,0
2018-03-16T18:47:37.840Z,0
2018-03-16T18:48:37.833Z,0
2018-03-16T18:49:37.574Z,0
2018-03-16T18:50:37.588Z,0
2018-03-16T18:51:37.561Z,0
2018-03-16T18:52:37.304Z,0
2018-03-16T18:53:37.622Z,0
2018-03-16T18:54:37.314Z,0
2018-03-16T18:55:37.811Z,0
2018-03-16T18:56:37.303Z,0
2018-03-16T18:57:37.552Z,0
2018-03-16T18:58:37.804Z,0
2018-03-16T18:59:37.797Z,0
2018-03-16T19:00:37.832Z,0
2018-03-16T19:01:37.793Z,0
2018-03-16T19:02:37.521Z,0
2018-03-16T19:03:37.769Z,0
2018-03-16T19:04:37.752Z,0
2018-03-16T19:05:37.246Z,0
2018-03-16T19:06:37.502Z,0
2018-03-16T19:07:37.756Z,0
2018-03-16T19:08:37.743Z,0
2018-03-16T19:09:37.736Z,0
2018-03-16T19:10:37.478Z,0
2018-03-16T19:11:37.731Z,0
2018-03-16T19:12:37.728Z,0
2018-03-16T19:13:37.460Z,0
2018-03-16T19:14:37.730Z,0
2018-03-16T19:15:37.721Z,0
2018-03-16T19:16:37.454Z,0
2018-03-16T19:17:37.194Z,0
2018-03-16T19:18:37.440Z,0
2018-03-16T19:19:37.579Z,0
2018-03-16T19:20:37.706Z,0
2018-03-16T19:21:37.436Z,0
2018-03-16T19:22:37.434Z,0
2018-03-16T19:23:37.442Z,0
2018-03-16T19:24:37.144Z,0
2018-03-16T19:25:37.452Z,0
2018-03-16T19:26:37.651Z,0
2018-03-16T19:27:37.150Z,0
2018-03-16T19:28:37.395Z,0
2018-03-16T19:29:37.134Z,0
2018-03-16T19:30:37.376Z,0
2018-03-16T19:31:37.381Z,0
2018-03-16T19:32:37.110Z,0
2018-03-16T19:33:37.630Z,0
2018-03-16T19:34:41.310Z,0
2018-03-16T19:35:37.345Z,0
2018-03-16T19:36:37.086Z,0
2018-03-16T19:37:37.602Z,0
2018-03-16T19:38:37.599Z,0
2018-03-16T19:39:37.327Z,0
2018-03-16T19:40:37.326Z,0
2018-03-16T19:41:37.575Z,0
2018-03-16T19:42:37.575Z,0
2018-03-16T19:43:37.573Z,0
2018-03-16T19:44:37.312Z,0
2018-03-16T19:45:37.552Z,0
2018-03-16T19:46:37.549Z,0
2018-03-16T19:47:37.299Z,0
2018-03-16T19:48:37.553Z,0
2018-03-16T19:49:37.331Z,0
2018-03-16T19:50:37.532Z,0
2018-03-16T19:51:37.261Z,0
2018-03-16T19:52:37.265Z,0
2018-03-16T19:53:37.517Z,0
2018-03-16T19:54:37.382Z,0
2018-03-16T19:55:37.504Z,0
2018-03-16T19:56:37.500Z,0
2018-03-16T19:57:36.989Z,0
2018-03-16T19:58:37.487Z,0
2018-03-16T19:59:37.491Z,0
2018-03-16T20:00:37.292Z,0
2018-03-16T20:01:37.516Z,0
2018-03-16T20:02:36.971Z,0
2018-03-16T20:03:37.206Z,0
2018-03-16T20:04:39.006Z,0
2018-03-16T20:05:37.467Z,0
2018-03-16T20:06:37.025Z,0
2018-03-16T20:07:37.198Z,0
2018-03-16T20:08:37.441Z,0
2018-03-16T20:09:37.435Z,0
2018-03-16T20:10:37.182Z,0
2018-03-16T20:11:37.167Z,0
2018-03-16T20:12:37.170Z,0
2018-03-16T20:13:37.412Z,0
2018-03-16T20:14:36.892Z,0
2018-03-16T20:15:37.402Z,0
2018-03-16T20:16:37.138Z,0
2018-03-16T20:17:37.397Z,0
2018-03-16T20:18:37.135Z,0
2018-03-16T20:19:37.149Z,0
2018-03-16T20:20:37.116Z,0
2018-03-16T20:21:36.857Z,0
2018-03-16T20:22:36.859Z,0
2018-03-16T20:23:37.354Z,0
2018-03-16T20:24:37.087Z,0
2018-03-16T20:25:37.085Z,0
2018-03-16T20:26:36.835Z,0
2018-03-16T20:27:37.352Z,0
2018-03-16T20:28:36.829Z,0
2018-03-16T20:29:37.075Z,0
2018-03-16T20:30:37.318Z,0
2018-03-16T20:31:37.414Z,0
2018-03-16T20:32:37.070Z,0
2018-03-16T20:33:36.816Z,0
2018-03-16T20:34:37.040Z,0
2018-03-16T20:35:40.905Z,0
2018-03-16T20:36:36.780Z,0
2018-03-16T20:37:37.293Z,0
2018-03-16T20:38:37.286Z,0
2018-03-16T20:39:37.268Z,0
2018-03-16T20:40:36.761Z,0
2018-03-16T20:41:37.262Z,0
2018-03-16T20:42:36.800Z,0
2018-03-16T20:43:37.258Z,0
2018-03-16T20:44:37.277Z,0
2018-03-16T20:45:36.984Z,0
2018-03-16T20:46:36.987Z,0
2018-03-16T20:47:37.046Z,0
2018-03-16T20:48:37.247Z,0
2018-03-16T20:49:36.977Z,0
2018-03-16T20:50:36.716Z,0
2018-03-16T20:51:37.222Z,0
2018-03-16T20:52:37.195Z,0
2018-03-16T20:53:36.694Z,0
2018-03-16T20:54:37.188Z,0
2018-03-16T20:55:37.183Z,0
2018-03-16T20:56:36.919Z,0
2018-03-16T20:57:37.180Z,0
2018-03-16T20:58:37.173Z,0
2018-03-16T20:59:37.167Z,0
2018-03-16T21:00:37.158Z,0
2018-03-16T21:01:37.177Z,0
2018-03-16T21:02:36.880Z,0
2018-03-16T21:03:36.889Z,0
2018-03-16T21:04:36.621Z,0
2018-03-16T21:05:37.972Z,0
2018-03-16T21:06:37.116Z,0
2018-03-16T21:07:37.107Z,0
2018-03-16T21:08:37.115Z,0
2018-03-16T21:09:37.099Z,0
2018-03-16T21:10:37.102Z,0
2018-03-16T21:11:36.574Z,0
2018-03-16T21:12:37.077Z,0
2018-03-16T21:13:36.810Z,0
2018-03-16T21:14:37.055Z,0
2018-03-16T21:15:36.801Z,0
2018-03-16T21:16:37.062Z,0
2018-03-16T21:17:36.798Z,0
2018-03-16T21:18:37.040Z,0
2018-03-16T21:19:36.530Z,0
2018-03-16T21:20:38.652Z,0
2018-03-16T21:21:37.068Z,0
2018-03-16T21:22:37.013Z,0
2018-03-16T21:23:36.498Z,0
2018-03-16T21:24:36.744Z,0
2018-03-16T21:25:36.492Z,0
2018-03-16T21:26:36.494Z,0
2018-03-16T21:27:36.733Z,0
2018-03-16T21:28:36.985Z,0
2018-03-16T21:29:36.990Z,0
2018-03-16T21:30:36.969Z,0
2018-03-16T21:31:36.704Z,0
2018-03-16T21:32:36.705Z,0
2018-03-16T21:33:36.687Z,0
2018-03-16T21:34:36.940Z,0
2018-03-16T21:35:36.704Z,0
2018-03-16T21:36:38.307Z,0
2018-03-16T21:37:36.676Z,0
2018-03-16T21:38:36.929Z,0
2018-03-16T21:39:36.909Z,0
2018-03-16T21:40:36.908Z,0
2018-03-16T21:41:37.019Z,0
2018-03-16T21:42:36.890Z,0
2018-03-16T21:43:36.630Z,0
2018-03-16T21:44:36.880Z,0
2018-03-16T21:45:36.362Z,0
2018-03-16T21:46:36.862Z,0
2018-03-16T21:47:36.878Z,0
2018-03-16T21:48:36.589Z,0
2018-03-16T21:49:36.844Z,0
2018-03-16T21:50:36.602Z,0
2018-03-16T21:51:37.830Z,0
2018-03-16T21:52:36.578Z,0
2018-03-16T21:53:36.823Z,0
2018-03-16T21:54:36.566Z,0
2018-03-16T21:55:36.804Z,0
2018-03-16T21:56:36.548Z,0
2018-03-16T21:57:36.529Z,0
2018-03-16T21:58:36.777Z,0
2018-03-16T21:59:36.777Z,0
2018-03-16T22:00:36.768Z,0
2018-03-16T22:01:36.254Z,0
2018-03-16T22:02:36.771Z,0
2018-03-16T22:03:36.503Z,0
2018-03-16T22:04:36.744Z,0
2018-03-16T22:05:36.487Z,0
2018-03-16T22:06:37.004Z,0
2018-03-16T22:07:36.468Z,0
2018-03-16T22:08:36.465Z,0
2018-03-16T22:09:36.734Z,0
2018-03-16T22:10:36.445Z,0
2018-03-16T22:11:36.201Z,0
2018-03-16T22:12:36.691Z,0
2018-03-16T22:13:36.578Z,0
2018-03-16T22:14:36.422Z,0
2018-03-16T22:15:36.434Z,0
2018-03-16T22:16:36.658Z,0
2018-03-16T22:17:36.155Z,0
2018-03-16T22:18:36.648Z,0
2018-03-16T22:19:36.403Z,0
2018-03-16T22:20:36.633Z,0
2018-03-16T22:21:36.379Z,0
2018-03-16T22:22:36.611Z,0
2018-03-16T22:23:36.371Z,0
2018-03-16T22:24:36.367Z,0
2018-03-16T22:25:36.351Z,0
2018-03-16T22:26:36.098Z,0
2018-03-16T22:27:36.328Z,0
2018-03-16T22:28:36.625Z,0
2018-03-16T22:29:36.076Z,0
2018-03-16T22:30:36.577Z,0
2018-03-16T22:31:36.565Z,0
2018-03-16T22:32:36.356Z,0
2018-03-16T22:33:36.544Z,0
2018-03-16T22:34:36.539Z,0
2018-03-16T22:35:36.276Z,0
2018-03-16T22:36:36.062Z,0
2018-03-16T22:37:36.515Z,0
2018-03-16T22:38:36.295Z,0
2018-03-16T22:39:36.252Z,0
2018-03-16T22:40:36.499Z,0
2018-03-16T22:41:36.236Z,0
2018-03-16T22:42:35.973Z,0
2018-03-16T22:43:36.479Z,0
2018-03-16T22:44:36.479Z,0
2018-03-16T22:45:36.469Z,0
2018-03-16T22:46:36.218Z,0
2018-03-16T22:47:36.490Z,0
2018-03-16T22:48:36.436Z,0
2018-03-16T22:49:36.225Z,0
2018-03-16T22:50:36.221Z,0
2018-03-16T22:51:36.208Z,0
2018-03-16T22:52:36.432Z,0
2018-03-16T22:53:36.412Z,0
2018-03-16T22:54:36.415Z,0
2018-03-16T22:55:36.401Z,0
2018-03-16T22:56:36.426Z,0
2018-03-16T22:57:36.380Z,0
2018-03-16T22:58:36.366Z,0
2018-03-16T22:59:36.121Z,0
2018-03-16T23:00:36.364Z,0
2018-03-16T23:01:36.086Z,0
2018-03-16T23:02:36.337Z,0
2018-03-16T23:03:36.068Z,0
2018-03-16T23:04:36.316Z,0
2018-03-16T23:05:36.309Z,0
2018-03-16T23:06:36.319Z,0
2018-03-16T23:07:36.315Z,0
2018-03-16T23:08:36.290Z,0
2018-03-16T23:09:36.300Z,0
2018-03-16T23:10:36.300Z,0
2018-03-16T23:11:36.030Z,0
2018-03-16T23:12:36.273Z,0
2018-03-16T23:13:36.281Z,0
2018-03-16T23:14:35.973Z,0
2018-03-16T23:15:35.975Z,0
2018-03-16T23:16:35.719Z,0
2018-03-16T23:17:35.956Z,0
2018-03-16T23:18:35.956Z,0
2018-03-16T23:19:35.968Z,0
2018-03-16T23:20:35.934Z,0
2018-03-16T23:21:36.216Z,0
2018-03-16T23:22:36.495Z,0
2018-03-16T23:23:36.185Z,0
2018-03-16T23:24:36.241Z,0
2018-03-16T23:25:36.187Z,0
2018-03-16T23:26:35.896Z,0
2018-03-16T23:27:36.161Z,0
2018-03-16T23:28:36.151Z,0
2018-03-16T23:29:36.156Z,0
2018-03-16T23:30:36.121Z,0
2018-03-16T23:31:36.131Z,0
2018-03-16T23:32:35.606Z,0
2018-03-16T23:33:35.589Z,0
2018-03-16T23:34:36.099Z,0
2018-03-16T23:35:35.822Z,0
2018-03-16T23:36:35.908Z,0
2018-03-16T23:37:36.071Z,0
2018-03-16T23:38:36.072Z,0
2018-03-16T23:39:36.063Z,0
2018-03-16T23:40:36.043Z,0
2018-03-16T23:41:36.039Z,0
2018-03-16T23:42:36.033Z,0
2018-03-16T23:43:35.767Z,0
2018-03-16T23:44:36.023Z,0
2018-03-16T23:45:35.758Z,0
2018-03-16T23:46:36.004Z,0
2018-03-16T23:47:35.996Z,0
2018-03-16T23:48:35.987Z,0
2018-03-16T23:49:36.010Z,0
2018-03-16T23:50:35.967Z,0
2018-03-16T23:51:35.971Z,0
2018-03-16T23:52:36.165Z,0
2018-03-16T23:53:35.702Z,0
2018-03-16T23:54:35.937Z,0
2018-03-16T23:55:35.928Z,0
2018-03-16T23:56:35.922Z,0
2018-03-16T23:57:35.920Z,0
2018-03-16T23:58:35.904Z,0
2018-03-16T23:59:35.898Z,0
